Hauptseite
METAR-TAF:

METAR-TAF

Flughäfen :

Flughafen Chuuk

Weno, Mikronesien

Breite: 07-28N, Länge: 151-51E, Höhe: 3 m

Beobachtung

Neuester Wetterbericht von vor 45 Minuten, um 15:51 UTC
Wind 5 kt aus unterschiedlichen Richtungen
Temperatur 28°C
Luftfeuchtigkeit 89%
Luftdruck 1008 hPa
Sichtweite: 24.1 km
Leicht bewölkt in der Höhe von 1400 ft
Durchbrochene Bewölkung in der Höhe von 28000 ft

METAR: PTKK 251551Z VRB05KT 15SM FEW014 BKN280 28/26 A2978 RMK SLP088 T02800255

Zeit: 02:36 (16:36 UTC)

Prognose

Neuester Wetterbericht von vor 4 Stunden und 54 Minuten, um 11:42 UTC
Gültige Prognose vom 25 um 12 UTC bis 26 um 12 UTC
Wind 11 kt aus Nordost
Sichtweite: 10 km
Aufgelockert bewölkt in der Höhe von 1400 ft
Aufgelockert bewölkt in der Höhe von 5000 ft
Schauer in der Nähe

TAF: PTKK 251142Z 2512/2612 04011KT P6SM VCSH SCT014 SCT050

Wetterbeobachtungen und Prognosen von mehr als 4000 Flughäfen (METAR und TAF Bericht).

Die verfügbaren Stationen werden durch gelbe und rote Markierungen auf der Karte dargestellt.

Führen Sie die Maus auf sie, um den Namen der Station zu sehen.

Darauf klicken, um die Beobachtung von Wetterbeobachtungen und Prognosen zu sehen.

Um die Karte zu ändern : klicken Sie auf den grünen Tasten mit einem schwarzen Kreuz Zum Vergrößern, auf den grünen Button mit einem Gedankenstrich zu verkleinern, oder auf die grünen Pfeile für benachbarte Karten.


METAR-TAF: